createdAt,value
2023-04-27T00:01:25.085Z,7.85
2023-04-27T00:03:51.928Z,8.07
2023-04-27T00:06:18.769Z,10.80
2023-04-27T00:08:45.542Z,7.00
2023-04-27T00:11:12.394Z,11.25
2023-04-27T00:13:39.088Z,6.80
2023-04-27T00:16:06.364Z,7.15
2023-04-27T00:18:33.153Z,6.45
2023-04-27T00:21:00.369Z,7.28
2023-04-27T00:23:27.920Z,6.75
2023-04-27T00:25:54.679Z,7.40
2023-04-27T00:28:21.400Z,9.80
2023-04-27T00:30:48.869Z,8.05
2023-04-27T00:33:17.256Z,9.13
2023-04-27T00:35:43.953Z,8.75
2023-04-27T00:38:11.618Z,6.65
2023-04-27T00:40:39.199Z,7.20
2023-04-27T00:43:06.109Z,9.30
2023-04-27T00:45:35.794Z,12.88
2023-04-27T00:48:02.567Z,8.45
2023-04-27T00:50:30.171Z,8.13
2023-04-27T00:52:57.434Z,6.97
2023-04-27T00:55:24.592Z,7.50
2023-04-27T00:57:51.848Z,9.75
2023-04-27T01:00:18.925Z,9.02
2023-04-27T01:02:46.198Z,9.02
2023-04-27T01:05:13.587Z,8.23
2023-04-27T01:07:41.019Z,9.35
2023-04-27T01:10:08.656Z,12.50
2023-04-27T01:12:35.661Z,8.82
2023-04-27T01:15:02.399Z,10.18
2023-04-27T01:17:29.137Z,9.25
2023-04-27T01:19:56.760Z,9.38
2023-04-27T01:22:23.572Z,7.45
2023-04-27T01:24:50.273Z,8.38
2023-04-27T01:27:16.998Z,9.68
2023-04-27T01:29:44.561Z,8.05
2023-04-27T01:32:12.885Z,11.43
2023-04-27T01:34:40.016Z,11.05
2023-04-27T01:37:06.753Z,9.25
2023-04-27T01:39:33.629Z,8.57
2023-04-27T01:42:00.364Z,8.70
2023-04-27T01:44:27.131Z,9.82
2023-04-27T01:46:53.842Z,8.73
2023-04-27T01:49:20.600Z,7.05
2023-04-27T01:51:47.335Z,9.85
2023-04-27T01:54:14.060Z,7.15
2023-04-27T01:56:41.109Z,8.30
2023-04-27T01:59:07.880Z,7.32
2023-04-27T02:01:34.660Z,9.98
2023-04-27T02:04:01.637Z,6.90
2023-04-27T02:06:28.468Z,6.85
2023-04-27T02:08:55.207Z,7.63
2023-04-27T02:11:22.179Z,8.50
2023-04-27T02:13:48.920Z,9.68
2023-04-27T02:16:15.743Z,7.18
2023-04-27T02:18:42.800Z,5.70
2023-04-27T02:21:10.848Z,6.88
2023-04-27T02:23:37.903Z,9.85
2023-04-27T02:26:04.686Z,6.95
2023-04-27T02:28:32.413Z,8.00
2023-04-27T02:30:59.694Z,7.40
2023-04-27T02:33:26.403Z,7.32
2023-04-27T02:35:53.140Z,7.53
2023-04-27T02:38:20.029Z,8.75
2023-04-27T02:40:46.775Z,8.15
2023-04-27T02:43:13.460Z,6.82
2023-04-27T02:45:40.216Z,9.30
2023-04-27T02:48:07.202Z,6.72
2023-04-27T02:50:34.023Z,7.05
2023-04-27T02:53:00.886Z,7.70
2023-04-27T02:55:27.994Z,7.90
2023-04-27T02:57:54.738Z,8.18
2023-04-27T03:00:22.020Z,5.80
2023-04-27T03:02:48.823Z,7.57
2023-04-27T03:05:15.991Z,5.65
2023-04-27T03:07:42.694Z,7.47
2023-04-27T03:10:09.969Z,6.75
2023-04-27T03:12:36.770Z,8.93
2023-04-27T03:15:03.984Z,7.40
2023-04-27T03:17:31.171Z,7.50
2023-04-27T03:19:57.962Z,6.30
2023-04-27T03:22:24.710Z,7.88
2023-04-27T03:24:51.439Z,9.18
2023-04-27T03:27:18.129Z,8.65
2023-04-27T03:29:44.969Z,6.72
2023-04-27T03:32:11.786Z,8.75
2023-04-27T03:34:38.543Z,12.27
2023-04-27T03:37:06.380Z,7.85
2023-04-27T03:39:33.149Z,7.95
2023-04-27T03:41:59.831Z,8.95
2023-04-27T03:44:26.550Z,8.80
2023-04-27T03:46:53.347Z,9.13
2023-04-27T03:49:20.152Z,8.05
2023-04-27T03:51:46.827Z,6.13
2023-04-27T03:54:13.602Z,7.28
2023-04-27T03:56:40.583Z,8.80
2023-04-27T03:59:07.359Z,10.35
2023-04-27T04:01:34.269Z,7.85
2023-04-27T04:04:01.201Z,9.10
2023-04-27T04:06:28.284Z,6.80
2023-04-27T04:08:55.561Z,10.38
2023-04-27T04:11:22.485Z,8.55
2023-04-27T04:13:49.289Z,8.35
2023-04-27T04:16:16.057Z,7.75
2023-04-27T04:18:42.850Z,7.45
2023-04-27T04:21:11.109Z,8.90
2023-04-27T04:23:38.439Z,9.95
2023-04-27T04:26:05.690Z,11.85
2023-04-27T04:28:32.588Z,7.72
2023-04-27T04:31:01.876Z,9.27
2023-04-27T04:33:28.632Z,8.70
2023-04-27T04:35:55.387Z,14.32
2023-04-27T04:38:23.454Z,9.65
2023-04-27T04:40:51.098Z,9.77
2023-04-27T04:43:17.916Z,12.75
2023-04-27T04:45:44.630Z,9.77
2023-04-27T04:48:11.549Z,9.02
2023-04-27T04:50:39.573Z,8.68
2023-04-27T04:53:06.538Z,8.18
2023-04-27T04:55:33.275Z,8.50
2023-04-27T04:58:00.549Z,14.57
2023-04-27T05:00:27.418Z,9.25
2023-04-27T05:02:54.275Z,10.00
2023-04-27T05:05:21.310Z,10.65
2023-04-27T05:07:48.009Z,8.77
2023-04-27T05:10:14.754Z,9.20
2023-04-27T05:12:41.551Z,10.15
2023-04-27T05:15:08.700Z,9.52
2023-04-27T05:17:35.594Z,8.57
2023-04-27T05:20:02.373Z,10.50
2023-04-27T05:22:29.092Z,10.85
2023-04-27T05:24:57.166Z,8.88
2023-04-27T05:27:24.274Z,8.80
2023-04-27T05:29:51.610Z,11.65
2023-04-27T05:32:18.400Z,6.88
2023-04-27T05:34:46.694Z,10.32
2023-04-27T05:37:14.762Z,7.72
2023-04-27T05:39:42.340Z,11.82
2023-04-27T05:42:09.052Z,11.27
2023-04-27T05:44:36.168Z,12.18
2023-04-27T05:47:02.949Z,8.93
2023-04-27T05:49:29.819Z,12.80
2023-04-27T05:51:56.621Z,11.93
2023-04-27T05:54:23.375Z,13.07
2023-04-27T05:56:51.172Z,13.25
2023-04-27T05:59:17.930Z,9.15
2023-04-27T06:01:44.644Z,14.27
2023-04-27T06:04:11.410Z,9.98
2023-04-27T06:06:38.391Z,7.07
2023-04-27T06:09:05.184Z,9.85
2023-04-27T06:11:31.888Z,11.30
2023-04-27T06:13:58.610Z,11.15
2023-04-27T06:16:25.406Z,9.63
2023-04-27T06:18:52.244Z,7.05
2023-04-27T06:21:18.969Z,7.85
2023-04-27T06:23:45.871Z,10.02
2023-04-27T06:26:12.562Z,11.52
2023-04-27T06:28:39.326Z,7.35
2023-04-27T06:31:06.723Z,7.70
2023-04-27T06:33:33.876Z,9.05
2023-04-27T06:36:02.252Z,9.10
2023-04-27T06:38:29.178Z,12.35
2023-04-27T06:40:56.412Z,9.38
2023-04-27T06:43:23.288Z,9.35
2023-04-27T06:45:50.074Z,11.85
2023-04-27T06:48:17.150Z,9.13
2023-04-27T06:50:44.271Z,7.90
2023-04-27T06:53:11.263Z,12.02
2023-04-27T06:55:38.153Z,8.48
2023-04-27T06:58:05.099Z,8.63
2023-04-27T07:00:32.403Z,8.57
2023-04-27T07:02:59.287Z,8.20
2023-04-27T07:05:26.421Z,6.38
2023-04-27T07:07:53.274Z,9.30
2023-04-27T07:10:20.144Z,11.95
2023-04-27T07:12:47.001Z,14.82
2023-04-27T07:15:13.806Z,10.55
2023-04-27T07:17:40.555Z,6.55
2023-04-27T07:20:08.651Z,7.88
2023-04-27T07:22:35.608Z,8.73
2023-04-27T07:25:02.419Z,9.00
2023-04-27T07:27:29.157Z,10.05
2023-04-27T07:29:56.632Z,7.65
2023-04-27T07:32:23.478Z,8.77
2023-04-27T07:34:53.977Z,8.88
2023-04-27T07:37:21.848Z,10.80
2023-04-27T07:39:53.030Z,10.82
2023-04-27T07:42:22.291Z,9.57
2023-04-27T07:44:50.318Z,12.52
2023-04-27T07:47:18.654Z,12.20
2023-04-27T07:49:48.607Z,11.35
2023-04-27T07:52:15.930Z,12.30
2023-04-27T07:54:43.188Z,9.80
2023-04-27T07:57:11.683Z,8.23
2023-04-27T07:59:38.937Z,11.70
2023-04-27T08:02:18.275Z,7.90
2023-04-27T08:04:46.012Z,10.43
2023-04-27T08:07:13.156Z,8.25
2023-04-27T08:09:40.030Z,10.00
2023-04-27T08:12:06.917Z,9.43
2023-04-27T08:14:36.819Z,9.50
2023-04-27T08:17:03.682Z,9.85
2023-04-27T08:19:30.514Z,9.35
2023-04-27T08:21:57.262Z,11.55
2023-04-27T08:24:24.034Z,9.05
2023-04-27T08:26:50.796Z,8.02
2023-04-27T08:29:27.058Z,7.90
2023-04-27T08:31:57.946Z,12.00
2023-04-27T08:34:24.727Z,10.43
2023-04-27T08:36:51.631Z,8.57
2023-04-27T08:39:18.564Z,8.32
2023-04-27T08:41:46.271Z,7.78
2023-04-27T08:44:13.248Z,9.32
2023-04-27T08:46:40.912Z,8.05
2023-04-27T08:49:08.174Z,6.70
2023-04-27T08:51:35.281Z,9.15
2023-04-27T08:54:02.560Z,6.95
2023-04-27T08:56:30.274Z,7.47
2023-04-27T08:58:58.362Z,7.05
2023-04-27T09:01:26.209Z,9.80
2023-04-27T09:03:58.135Z,7.55
2023-04-27T09:06:33.095Z,5.63
2023-04-27T09:09:00.674Z,7.38
2023-04-27T09:11:35.722Z,8.57
2023-04-27T09:14:15.349Z,7.40
2023-04-27T09:16:43.047Z,8.07
2023-04-27T09:19:10.077Z,9.38
2023-04-27T09:21:36.827Z,7.55
2023-04-27T09:24:13.850Z,5.32
2023-04-27T09:26:42.969Z,5.93
2023-04-27T09:29:10.051Z,10.63
2023-04-27T09:31:37.588Z,6.78
2023-04-27T09:34:04.619Z,6.68
2023-04-27T09:36:32.633Z,6.45
2023-04-27T09:39:04.456Z,6.05
2023-04-27T09:41:32.737Z,5.53
2023-04-27T09:43:59.982Z,5.18
2023-04-27T09:46:28.529Z,8.70
2023-04-27T09:48:56.563Z,7.00
2023-04-27T09:51:23.286Z,9.93
2023-04-27T09:53:53.969Z,8.00
2023-04-27T09:56:45.500Z,8.70
2023-04-27T09:59:45.480Z,7.00
2023-04-27T10:02:24.863Z,6.95
2023-04-27T10:07:19.360Z,7.00
2023-04-27T10:09:48.318Z,5.63
2023-04-27T10:12:18.100Z,6.20
2023-04-27T10:14:56.141Z,5.63
2023-04-27T10:17:34.354Z,6.47
2023-04-27T10:20:08.966Z,6.13
2023-04-27T10:22:41.675Z,6.95
2023-04-27T10:25:22.181Z,7.22
2023-04-27T10:28:00.085Z,7.70
2023-04-27T10:30:32.945Z,7.05
2023-04-27T10:33:05.386Z,7.85
2023-04-27T10:35:37.616Z,5.70
2023-04-27T10:38:08.488Z,7.00
2023-04-27T10:40:36.631Z,7.00
2023-04-27T10:43:16.097Z,8.85
2023-04-27T10:45:43.896Z,3.73
2023-04-27T10:48:15.670Z,5.38
2023-04-27T10:50:47.575Z,8.63
2023-04-27T10:53:15.572Z,5.43
2023-04-27T10:55:42.366Z,8.77
2023-04-27T10:58:09.140Z,7.55
2023-04-27T11:00:44.696Z,5.95
2023-04-27T11:03:20.908Z,6.13
2023-04-27T11:05:49.487Z,6.15
2023-04-27T11:08:18.389Z,5.10
2023-04-27T11:10:50.436Z,4.88
2023-04-27T11:13:25.431Z,6.03
2023-04-27T11:15:59.537Z,3.83
2023-04-27T11:18:29.800Z,5.57
2023-04-27T11:21:11.229Z,6.82
2023-04-27T11:23:38.918Z,4.43
2023-04-27T11:26:16.145Z,4.93
2023-04-27T11:28:44.532Z,3.40
2023-04-27T11:31:11.684Z,9.90
2023-04-27T11:33:40.205Z,5.97
2023-04-27T11:36:22.817Z,7.57
2023-04-27T11:38:49.917Z,5.93
2023-04-27T11:41:17.620Z,6.57
2023-04-27T11:43:49.439Z,3.45
2023-04-27T11:46:20.825Z,5.07
2023-04-27T11:48:47.556Z,6.88
2023-04-27T11:51:14.360Z,11.98
2023-04-27T11:53:42.552Z,4.90
2023-04-27T11:56:11.073Z,4.30
2023-04-27T11:58:39.185Z,7.10
2023-04-27T12:01:06.685Z,7.65
2023-04-27T12:03:34.454Z,5.57
2023-04-27T12:08:31.658Z,8.32
2023-04-27T12:10:58.504Z,4.35
2023-04-27T12:13:25.238Z,4.85
2023-04-27T12:15:52.306Z,5.43
2023-04-27T12:18:18.999Z,4.38
2023-04-27T12:20:46.456Z,5.50
2023-04-27T12:23:13.224Z,4.88
2023-04-27T12:25:41.173Z,5.28
2023-04-27T12:28:08.463Z,5.28
2023-04-27T12:30:35.201Z,4.20
2023-04-27T12:33:04.405Z,6.00
2023-04-27T12:35:32.006Z,7.93
2023-04-27T12:37:58.917Z,4.50
2023-04-27T12:40:25.701Z,4.25
2023-04-27T12:42:52.644Z,4.38
2023-04-27T12:45:19.382Z,4.93
2023-04-27T12:47:54.581Z,6.38
2023-04-27T12:50:28.222Z,4.57
2023-04-27T12:52:54.953Z,4.28
2023-04-27T12:55:32.191Z,4.85
2023-04-27T12:58:00.203Z,7.43
2023-04-27T13:00:27.609Z,5.35
2023-04-27T13:02:54.600Z,5.60
2023-04-27T13:05:22.376Z,4.68
2023-04-27T13:07:49.293Z,6.10
2023-04-27T13:10:16.249Z,5.40
2023-04-27T13:12:43.127Z,3.47
2023-04-27T13:15:10.711Z,6.10
2023-04-27T13:17:37.852Z,5.07
2023-04-27T13:20:06.080Z,3.17
2023-04-27T13:22:32.897Z,5.50
2023-04-27T13:24:59.585Z,3.78
2023-04-27T13:27:28.412Z,5.82
2023-04-27T13:29:55.221Z,4.55
2023-04-27T13:32:22.618Z,4.63
2023-04-27T13:34:49.534Z,4.25
2023-04-27T13:37:16.988Z,7.75
2023-04-27T13:39:43.682Z,4.18
2023-04-27T13:42:10.404Z,6.65
2023-04-27T13:44:37.165Z,5.85
2023-04-27T13:47:04.045Z,5.40
2023-04-27T13:49:30.891Z,6.70
2023-04-27T13:51:58.653Z,6.10
2023-04-27T13:54:25.893Z,5.80
2023-04-27T13:56:52.585Z,4.32
2023-04-27T13:59:19.273Z,6.25
2023-04-27T14:01:46.087Z,4.28
2023-04-27T14:04:13.040Z,3.88
2023-04-27T14:06:39.874Z,5.22
2023-04-27T14:09:06.988Z,3.75
2023-04-27T14:11:39.608Z,7.07
2023-04-27T14:14:15.977Z,5.60
2023-04-27T14:16:42.745Z,3.70
2023-04-27T14:19:10.455Z,5.80
2023-04-27T14:21:37.211Z,5.20
2023-04-27T14:24:04.119Z,4.63
2023-04-27T14:26:30.893Z,5.90
2023-04-27T14:28:58.745Z,5.07
2023-04-27T14:31:26.510Z,3.47
2023-04-27T14:33:53.401Z,3.78
2023-04-27T14:36:20.327Z,3.97
2023-04-27T14:38:47.406Z,3.65
2023-04-27T14:41:14.132Z,3.20
2023-04-27T14:43:41.866Z,4.68
2023-04-27T14:46:20.320Z,4.07
2023-04-27T14:48:48.580Z,3.88
2023-04-27T14:51:16.263Z,4.90
2023-04-27T14:53:43.973Z,4.40
2023-04-27T14:56:11.639Z,5.50
2023-04-27T14:58:38.754Z,5.93
2023-04-27T15:01:06.064Z,5.82
2023-04-27T15:03:33.325Z,5.93
2023-04-27T15:06:01.350Z,5.03
2023-04-27T15:08:29.343Z,4.45
2023-04-27T15:10:59.702Z,4.55
2023-04-27T15:13:27.070Z,4.33
2023-04-27T15:16:04.832Z,3.95
2023-04-27T15:18:32.002Z,4.75
2023-04-27T15:20:59.757Z,6.20
2023-04-27T15:23:27.564Z,4.38
2023-04-27T15:25:55.944Z,6.78
2023-04-27T15:28:22.986Z,4.95
2023-04-27T15:30:49.931Z,9.55
2023-04-27T15:33:17.403Z,6.00
2023-04-27T15:35:44.289Z,6.32
2023-04-27T15:38:13.228Z,3.95
2023-04-27T15:40:40.498Z,5.97
2023-04-27T15:43:07.328Z,4.13
2023-04-27T15:45:34.163Z,4.07
2023-04-27T15:48:01.346Z,4.63
2023-04-27T15:50:28.214Z,3.92
2023-04-27T15:52:54.937Z,5.63
2023-04-27T15:55:22.420Z,6.03
2023-04-27T15:57:49.365Z,3.53
2023-04-27T16:00:16.970Z,3.72
2023-04-27T16:02:44.000Z,4.90
2023-04-27T16:05:10.959Z,3.25
2023-04-27T16:07:39.794Z,4.72
2023-04-27T16:10:07.469Z,5.55
2023-04-27T16:12:34.720Z,5.18
2023-04-27T16:15:01.500Z,3.05
2023-04-27T16:17:31.713Z,3.40
2023-04-27T16:19:58.477Z,3.47
2023-04-27T16:22:25.387Z,4.00
2023-04-27T16:24:52.090Z,3.83
2023-04-27T16:27:20.676Z,5.40
2023-04-27T16:29:47.686Z,6.72
2023-04-27T16:32:14.498Z,5.30
2023-04-27T16:34:41.547Z,6.50
2023-04-27T16:37:08.247Z,4.70
2023-04-27T16:39:35.754Z,4.38
2023-04-27T16:42:02.901Z,5.57
2023-04-27T16:44:29.668Z,3.80
2023-04-27T16:46:56.449Z,3.45
2023-04-27T16:49:23.182Z,5.20
2023-04-27T16:51:50.521Z,4.40
2023-04-27T16:54:17.540Z,3.72
2023-04-27T16:56:45.759Z,2.80
2023-04-27T16:59:12.751Z,5.30
2023-04-27T17:01:40.420Z,3.47
2023-04-27T17:04:07.426Z,3.35
2023-04-27T17:06:34.806Z,3.63
2023-04-27T17:09:01.648Z,5.07
2023-04-27T17:11:28.548Z,4.78
2023-04-27T17:13:55.478Z,6.55
2023-04-27T17:16:23.462Z,4.22
2023-04-27T17:18:50.425Z,5.47
2023-04-27T17:21:17.417Z,4.90
2023-04-27T17:23:46.617Z,4.22
2023-04-27T17:26:15.898Z,3.58
2023-04-27T17:28:42.716Z,5.93
2023-04-27T17:31:09.615Z,5.97
2023-04-27T17:33:36.468Z,4.25
2023-04-27T17:36:03.276Z,7.53
2023-04-27T17:38:30.015Z,8.55
2023-04-27T17:40:56.748Z,4.10
2023-04-27T17:43:23.464Z,7.93
2023-04-27T17:45:50.448Z,6.53
2023-04-27T17:48:17.569Z,4.07
2023-04-27T17:50:44.389Z,6.07
2023-04-27T17:53:11.128Z,6.15
2023-04-27T17:55:37.836Z,3.75
2023-04-27T17:58:06.262Z,3.00
2023-04-27T18:00:33.301Z,4.47
2023-04-27T18:03:00.460Z,5.82
2023-04-27T18:05:27.417Z,4.85
2023-04-27T18:07:54.218Z,4.18
2023-04-27T18:10:21.107Z,4.05
2023-04-27T18:12:47.803Z,4.40
2023-04-27T18:15:14.543Z,4.50
2023-04-27T18:17:41.390Z,4.85
2023-04-27T18:20:10.420Z,5.75
2023-04-27T18:22:39.979Z,5.22
2023-04-27T18:25:08.343Z,5.28
2023-04-27T18:27:37.378Z,3.10
2023-04-27T18:30:08.511Z,3.58
2023-04-27T18:32:36.010Z,5.72
2023-04-27T18:35:03.494Z,4.07
2023-04-27T18:37:30.710Z,3.83
2023-04-27T18:39:57.506Z,5.28
2023-04-27T18:42:24.279Z,4.30
2023-04-27T18:44:54.761Z,3.95
2023-04-27T18:47:21.730Z,3.97
2023-04-27T18:49:48.652Z,7.10
2023-04-27T18:52:15.433Z,3.40
2023-04-27T18:54:42.274Z,4.95
2023-04-27T18:57:09.106Z,5.10
2023-04-27T18:59:38.717Z,4.72
2023-04-27T19:02:07.015Z,6.80
2023-04-27T19:04:34.351Z,5.07
2023-04-27T19:07:01.957Z,6.43
2023-04-27T19:09:28.967Z,7.03
2023-04-27T19:12:02.695Z,6.32
2023-04-27T19:14:30.737Z,5.70
2023-04-27T19:16:57.614Z,6.15
2023-04-27T19:19:25.778Z,6.63
2023-04-27T19:21:52.561Z,5.28
2023-04-27T19:24:19.293Z,5.25
2023-04-27T19:26:47.148Z,5.78
2023-04-27T19:29:14.127Z,7.85
2023-04-27T19:31:41.139Z,6.35
2023-04-27T19:34:08.108Z,7.43
2023-04-27T19:36:34.807Z,10.52
2023-04-27T19:39:01.552Z,9.35
2023-04-27T19:41:28.355Z,7.88
2023-04-27T19:43:55.435Z,7.00
2023-04-27T19:46:22.215Z,7.35
2023-04-27T19:48:49.000Z,9.07
2023-04-27T19:51:15.733Z,9.70
2023-04-27T19:53:42.576Z,6.95
2023-04-27T19:56:09.253Z,5.97
2023-04-27T19:58:37.062Z,8.68
2023-04-27T20:01:04.049Z,6.80
2023-04-27T20:03:31.147Z,5.85
2023-04-27T20:08:25.005Z,7.40
2023-04-27T20:10:51.881Z,6.68
2023-04-27T20:13:18.729Z,8.00
2023-04-27T20:15:46.550Z,10.05
2023-04-27T20:18:13.429Z,8.30
2023-04-27T20:20:41.942Z,7.00
2023-04-27T20:23:08.774Z,7.03
2023-04-27T20:25:35.541Z,6.95
2023-04-27T20:28:02.330Z,11.07
2023-04-27T20:30:29.803Z,13.00
2023-04-27T20:32:56.591Z,11.20
2023-04-27T20:35:24.171Z,11.65
2023-04-27T20:37:52.026Z,11.93
2023-04-27T20:40:19.077Z,11.02
2023-04-27T20:42:46.270Z,10.35
2023-04-27T20:45:13.254Z,11.10
2023-04-27T20:47:40.407Z,9.07
2023-04-27T20:50:07.835Z,10.38
2023-04-27T20:52:35.111Z,6.72
2023-04-27T20:55:03.331Z,8.30
2023-04-27T20:57:30.095Z,9.15
2023-04-27T20:59:56.891Z,8.00
2023-04-27T21:02:23.667Z,8.23
2023-04-27T21:04:50.754Z,7.70
2023-04-27T21:07:17.931Z,7.97
2023-04-27T21:09:44.708Z,10.85
2023-04-27T21:12:14.362Z,11.48
2023-04-27T21:14:41.154Z,9.95
2023-04-27T21:17:07.945Z,7.32
2023-04-27T21:19:34.687Z,9.55
2023-04-27T21:22:01.514Z,7.45
2023-04-27T21:24:28.287Z,9.43
2023-04-27T21:26:55.003Z,7.78
2023-04-27T21:29:21.823Z,6.55
2023-04-27T21:31:48.548Z,10.57
2023-04-27T21:34:15.607Z,9.50
2023-04-27T21:36:42.550Z,7.22
2023-04-27T21:39:09.262Z,8.88
2023-04-27T21:41:37.152Z,9.25
2023-04-27T21:44:04.065Z,8.38
2023-04-27T21:46:30.847Z,8.00
2023-04-27T21:48:57.618Z,10.38
2023-04-27T21:51:24.277Z,13.73
2023-04-27T21:53:51.028Z,10.07
2023-04-27T21:56:17.718Z,11.25
2023-04-27T21:58:44.502Z,8.50
2023-04-27T22:01:12.967Z,9.98
2023-04-27T22:03:39.907Z,11.52
2023-04-27T22:06:07.507Z,9.60
2023-04-27T22:08:35.011Z,7.75
2023-04-27T22:11:01.837Z,10.27
2023-04-27T22:13:28.742Z,9.55
2023-04-27T22:15:55.721Z,12.70
2023-04-27T22:18:22.516Z,9.57
2023-04-27T22:20:49.418Z,9.02
2023-04-27T22:23:16.618Z,9.68
2023-04-27T22:25:43.422Z,8.80
2023-04-27T22:28:10.803Z,10.35
2023-04-27T22:30:39.004Z,10.57
2023-04-27T22:33:06.359Z,10.68
2023-04-27T22:35:33.731Z,8.70
2023-04-27T22:38:00.778Z,11.23
2023-04-27T22:40:27.497Z,8.63
2023-04-27T22:42:55.152Z,10.35
2023-04-27T22:45:22.889Z,9.02
2023-04-27T22:47:49.867Z,10.80
2023-04-27T22:50:16.975Z,13.27
2023-04-27T22:52:44.076Z,10.43
2023-04-27T22:55:12.202Z,9.27
2023-04-27T22:57:40.157Z,9.82
2023-04-27T23:00:11.431Z,8.23
2023-04-27T23:02:39.575Z,9.65
2023-04-27T23:05:07.192Z,10.00
2023-04-27T23:07:34.433Z,10.35
2023-04-27T23:10:02.954Z,8.55
2023-04-27T23:12:30.764Z,8.38
2023-04-27T23:14:58.420Z,11.43
2023-04-27T23:17:31.750Z,10.27
2023-04-27T23:19:59.946Z,7.28
2023-04-27T23:22:27.218Z,8.25
2023-04-27T23:24:54.334Z,7.57
2023-04-27T23:27:21.871Z,8.65
2023-04-27T23:29:48.616Z,7.32
2023-04-27T23:32:15.365Z,8.38
2023-04-27T23:34:42.133Z,11.38
2023-04-27T23:37:08.895Z,7.80
2023-04-27T23:39:35.781Z,6.35
2023-04-27T23:42:03.286Z,10.10
2023-04-27T23:44:30.074Z,7.95
2023-04-27T23:46:56.896Z,6.45
2023-04-27T23:49:23.607Z,7.45
2023-04-27T23:51:52.473Z,6.00
2023-04-27T23:54:19.235Z,9.18
2023-04-27T23:56:46.078Z,8.27
2023-04-27T23:59:14.929Z,7.22
